sensor_id;sensor_type;location;lat;lon;timestamp;P1;durP1;ratioP1;P2;durP2;ratioP2
73512;SDS011;61754;55.008;73.348;2022-07-22T00:00:37;5.47;;;3.83;;
73512;SDS011;61754;55.008;73.348;2022-07-22T00:03:03;4.00;;;3.60;;
73512;SDS011;61754;55.008;73.348;2022-07-22T00:05:29;6.30;;;4.55;;
73512;SDS011;61754;55.008;73.348;2022-07-22T00:07:55;6.72;;;3.95;;
73512;SDS011;61754;55.008;73.348;2022-07-22T00:10:21;6.03;;;4.30;;
73512;SDS011;61754;55.008;73.348;2022-07-22T00:12:47;4.32;;;3.83;;
73512;SDS011;61754;55.008;73.348;2022-07-22T00:15:13;4.82;;;4.43;;
73512;SDS011;61754;55.008;73.348;2022-07-22T00:17:49;4.60;;;3.90;;
73512;SDS011;61754;55.008;73.348;2022-07-22T00:20:21;5.47;;;3.97;;
73512;SDS011;61754;55.008;73.348;2022-07-22T00:22:52;5.40;;;4.13;;
73512;SDS011;61754;55.008;73.348;2022-07-22T00:25:18;5.60;;;3.97;;
73512;SDS011;61754;55.008;73.348;2022-07-22T00:27:44;4.35;;;4.05;;
73512;SDS011;61754;55.008;73.348;2022-07-22T00:30:10;4.75;;;3.45;;
73512;SDS011;61754;55.008;73.348;2022-07-22T00:32:37;6.68;;;4.05;;
73512;SDS011;61754;55.008;73.348;2022-07-22T00:35:03;5.65;;;4.43;;
73512;SDS011;61754;55.008;73.348;2022-07-22T00:37:34;4.97;;;4.10;;
73512;SDS011;61754;55.008;73.348;2022-07-22T00:40:00;4.90;;;4.05;;
73512;SDS011;61754;55.008;73.348;2022-07-22T00:42:32;7.93;;;3.72;;
73512;SDS011;61754;55.008;73.348;2022-07-22T00:44:59;7.57;;;4.22;;
73512;SDS011;61754;55.008;73.348;2022-07-22T00:47:26;6.82;;;4.10;;
73512;SDS011;61754;55.008;73.348;2022-07-22T00:50:02;5.28;;;4.25;;
73512;SDS011;61754;55.008;73.348;2022-07-22T00:52:36;4.93;;;4.43;;
73512;SDS011;61754;55.008;73.348;2022-07-22T00:55:13;4.80;;;4.38;;
73512;SDS011;61754;55.008;73.348;2022-07-22T00:57:39;8.93;;;4.55;;
73512;SDS011;61754;55.008;73.348;2022-07-22T01:00:07;10.90;;;5.07;;
73512;SDS011;61754;55.008;73.348;2022-07-22T01:02:35;11.27;;;5.15;;
73512;SDS011;61754;55.008;73.348;2022-07-22T01:05:04;5.82;;;4.10;;
73512;SDS011;61754;55.008;73.348;2022-07-22T01:07:30;9.43;;;4.90;;
73512;SDS011;61754;55.008;73.348;2022-07-22T01:09:56;9.20;;;4.55;;
73512;SDS011;61754;55.008;73.348;2022-07-22T01:12:22;13.27;;;4.70;;
73512;SDS011;61754;55.008;73.348;2022-07-22T01:14:48;10.30;;;4.75;;
73512;SDS011;61754;55.008;73.348;2022-07-22T01:17:23;4.80;;;4.30;;
73512;SDS011;61754;55.008;73.348;2022-07-22T01:19:50;4.45;;;4.03;;
73512;SDS011;61754;55.008;73.348;2022-07-22T01:22:16;14.57;;;5.28;;
73512;SDS011;61754;55.008;73.348;2022-07-22T01:24:42;8.13;;;4.97;;
73512;SDS011;61754;55.008;73.348;2022-07-22T01:27:09;12.63;;;4.30;;
73512;SDS011;61754;55.008;73.348;2022-07-22T01:29:35;7.20;;;5.50;;
73512;SDS011;61754;55.008;73.348;2022-07-22T01:32:01;7.55;;;4.40;;
73512;SDS011;61754;55.008;73.348;2022-07-22T01:34:34;7.47;;;4.97;;
73512;SDS011;61754;55.008;73.348;2022-07-22T01:37:00;11.52;;;4.43;;
73512;SDS011;61754;55.008;73.348;2022-07-22T01:39:26;6.15;;;5.22;;
73512;SDS011;61754;55.008;73.348;2022-07-22T01:41:52;7.75;;;5.18;;
73512;SDS011;61754;55.008;73.348;2022-07-22T01:44:18;12.32;;;5.32;;
73512;SDS011;61754;55.008;73.348;2022-07-22T01:46:44;10.93;;;5.18;;
73512;SDS011;61754;55.008;73.348;2022-07-22T01:49:10;11.43;;;5.22;;
73512;SDS011;61754;55.008;73.348;2022-07-22T01:51:38;10.90;;;5.38;;
73512;SDS011;61754;55.008;73.348;2022-07-22T01:54:06;14.25;;;5.40;;
73512;SDS011;61754;55.008;73.348;2022-07-22T01:56:32;13.55;;;5.38;;
73512;SDS011;61754;55.008;73.348;2022-07-22T01:58:58;12.27;;;5.10;;
73512;SDS011;61754;55.008;73.348;2022-07-22T02:01:26;8.07;;;4.50;;
73512;SDS011;61754;55.008;73.348;2022-07-22T02:03:53;7.70;;;5.50;;
73512;SDS011;61754;55.008;73.348;2022-07-22T02:06:19;8.30;;;5.72;;
73512;SDS011;61754;55.008;73.348;2022-07-22T02:08:45;11.93;;;6.78;;
73512;SDS011;61754;55.008;73.348;2022-07-22T02:11:19;16.20;;;7.15;;
73512;SDS011;61754;55.008;73.348;2022-07-22T02:13:52;20.08;;;8.40;;
73512;SDS011;61754;55.008;73.348;2022-07-22T02:16:19;28.45;;;9.10;;
73512;SDS011;61754;55.008;73.348;2022-07-22T02:18:46;24.15;;;9.00;;
73512;SDS011;61754;55.008;73.348;2022-07-22T02:21:12;20.88;;;9.65;;
73512;SDS011;61754;55.008;73.348;2022-07-22T02:23:38;20.88;;;9.38;;
73512;SDS011;61754;55.008;73.348;2022-07-22T02:26:15;17.23;;;7.38;;
73512;SDS011;61754;55.008;73.348;2022-07-22T02:28:41;23.92;;;8.60;;
73512;SDS011;61754;55.008;73.348;2022-07-22T02:31:07;24.67;;;8.68;;
73512;SDS011;61754;55.008;73.348;2022-07-22T02:33:33;15.57;;;7.05;;
73512;SDS011;61754;55.008;73.348;2022-07-22T02:36:00;17.80;;;6.38;;
73512;SDS011;61754;55.008;73.348;2022-07-22T02:38:26;13.25;;;5.40;;
73512;SDS011;61754;55.008;73.348;2022-07-22T02:40:52;15.68;;;6.15;;
73512;SDS011;61754;55.008;73.348;2022-07-22T02:43:20;18.92;;;7.50;;
73512;SDS011;61754;55.008;73.348;2022-07-22T02:45:51;39.90;;;9.70;;
73512;SDS011;61754;55.008;73.348;2022-07-22T02:48:23;23.52;;;8.23;;
73512;SDS011;61754;55.008;73.348;2022-07-22T02:50:51;18.95;;;6.68;;
73512;SDS011;61754;55.008;73.348;2022-07-22T02:53:32;17.08;;;5.43;;
73512;SDS011;61754;55.008;73.348;2022-07-22T02:56:02;9.18;;;4.68;;
73512;SDS011;61754;55.008;73.348;2022-07-22T02:58:30;9.40;;;4.80;;
73512;SDS011;61754;55.008;73.348;2022-07-22T03:00:56;6.65;;;4.43;;
73512;SDS011;61754;55.008;73.348;2022-07-22T03:03:24;8.23;;;5.15;;
73512;SDS011;61754;55.008;73.348;2022-07-22T03:05:50;11.07;;;5.22;;
73512;SDS011;61754;55.008;73.348;2022-07-22T03:08:29;10.77;;;6.03;;
73512;SDS011;61754;55.008;73.348;2022-07-22T03:10:55;7.43;;;4.93;;
73512;SDS011;61754;55.008;73.348;2022-07-22T03:13:21;13.18;;;5.30;;
73512;SDS011;61754;55.008;73.348;2022-07-22T03:15:47;5.72;;;4.82;;
73512;SDS011;61754;55.008;73.348;2022-07-22T03:18:13;13.07;;;6.35;;
73512;SDS011;61754;55.008;73.348;2022-07-22T03:20:45;11.35;;;6.05;;
73512;SDS011;61754;55.008;73.348;2022-07-22T03:23:11;7.85;;;5.15;;
73512;SDS011;61754;55.008;73.348;2022-07-22T03:25:39;7.60;;;5.07;;
73512;SDS011;61754;55.008;73.348;2022-07-22T03:28:05;6.60;;;5.47;;
73512;SDS011;61754;55.008;73.348;2022-07-22T03:30:31;8.52;;;5.75;;
73512;SDS011;61754;55.008;73.348;2022-07-22T03:32:58;9.45;;;6.88;;
73512;SDS011;61754;55.008;73.348;2022-07-22T03:35:31;7.68;;;6.63;;
73512;SDS011;61754;55.008;73.348;2022-07-22T03:37:57;11.82;;;6.53;;
73512;SDS011;61754;55.008;73.348;2022-07-22T03:40:26;6.85;;;6.05;;
73512;SDS011;61754;55.008;73.348;2022-07-22T03:42:53;8.50;;;6.90;;
73512;SDS011;61754;55.008;73.348;2022-07-22T03:45:19;8.45;;;7.13;;
73512;SDS011;61754;55.008;73.348;2022-07-22T03:47:56;8.45;;;7.03;;
73512;SDS011;61754;55.008;73.348;2022-07-22T03:50:36;13.15;;;6.88;;
73512;SDS011;61754;55.008;73.348;2022-07-22T03:53:02;11.88;;;7.18;;
73512;SDS011;61754;55.008;73.348;2022-07-22T03:55:36;14.60;;;7.38;;
73512;SDS011;61754;55.008;73.348;2022-07-22T03:58:02;14.25;;;8.00;;
73512;SDS011;61754;55.008;73.348;2022-07-22T04:00:29;24.70;;;9.45;;
73512;SDS011;61754;55.008;73.348;2022-07-22T04:02:57;38.25;;;10.80;;
73512;SDS011;61754;55.008;73.348;2022-07-22T04:05:48;35.40;;;10.13;;
73512;SDS011;61754;55.008;73.348;2022-07-22T04:08:23;17.92;;;8.60;;
73512;SDS011;61754;55.008;73.348;2022-07-22T04:10:49;22.38;;;8.50;;
73512;SDS011;61754;55.008;73.348;2022-07-22T04:13:15;20.33;;;7.82;;
73512;SDS011;61754;55.008;73.348;2022-07-22T04:15:49;10.95;;;7.28;;
73512;SDS011;61754;55.008;73.348;2022-07-22T04:18:15;13.45;;;7.60;;
73512;SDS011;61754;55.008;73.348;2022-07-22T04:20:49;26.95;;;9.93;;
73512;SDS011;61754;55.008;73.348;2022-07-22T04:23:23;20.30;;;7.72;;
73512;SDS011;61754;55.008;73.348;2022-07-22T04:25:58;27.30;;;11.30;;
73512;SDS011;61754;55.008;73.348;2022-07-22T04:28:24;19.85;;;8.05;;
73512;SDS011;61754;55.008;73.348;2022-07-22T04:30:54;25.55;;;9.10;;
73512;SDS011;61754;55.008;73.348;2022-07-22T04:33:25;36.00;;;10.40;;
73512;SDS011;61754;55.008;73.348;2022-07-22T04:35:51;32.65;;;10.88;;
73512;SDS011;61754;55.008;73.348;2022-07-22T04:38:18;48.70;;;12.32;;
73512;SDS011;61754;55.008;73.348;2022-07-22T04:40:54;42.78;;;12.60;;
73512;SDS011;61754;55.008;73.348;2022-07-22T04:43:21;58.67;;;11.40;;
73512;SDS011;61754;55.008;73.348;2022-07-22T04:45:47;37.80;;;9.77;;
73512;SDS011;61754;55.008;73.348;2022-07-22T04:48:13;30.63;;;10.07;;
73512;SDS011;61754;55.008;73.348;2022-07-22T04:50:39;12.68;;;6.85;;
73512;SDS011;61754;55.008;73.348;2022-07-22T04:53:05;26.73;;;8.82;;
73512;SDS011;61754;55.008;73.348;2022-07-22T04:55:31;25.92;;;9.38;;
73512;SDS011;61754;55.008;73.348;2022-07-22T04:58:02;17.05;;;7.78;;
73512;SDS011;61754;55.008;73.348;2022-07-22T05:00:29;13.35;;;7.03;;
73512;SDS011;61754;55.008;73.348;2022-07-22T05:02:55;13.75;;;6.18;;
73512;SDS011;61754;55.008;73.348;2022-07-22T05:05:26;14.15;;;6.47;;
73512;SDS011;61754;55.008;73.348;2022-07-22T05:07:53;31.58;;;8.70;;
73512;SDS011;61754;55.008;73.348;2022-07-22T05:10:24;69.03;;;14.45;;
73512;SDS011;61754;55.008;73.348;2022-07-22T05:12:50;63.63;;;13.52;;
73512;SDS011;61754;55.008;73.348;2022-07-22T05:15:26;37.33;;;10.82;;
73512;SDS011;61754;55.008;73.348;2022-07-22T05:18:02;29.13;;;8.70;;
73512;SDS011;61754;55.008;73.348;2022-07-22T05:20:33;19.88;;;6.57;;
73512;SDS011;61754;55.008;73.348;2022-07-22T05:23:04;9.73;;;5.07;;
73512;SDS011;61754;55.008;73.348;2022-07-22T05:25:33;21.45;;;7.15;;
73512;SDS011;61754;55.008;73.348;2022-07-22T05:28:00;21.98;;;8.02;;
73512;SDS011;61754;55.008;73.348;2022-07-22T05:30:35;43.28;;;9.32;;
73512;SDS011;61754;55.008;73.348;2022-07-22T05:33:03;50.10;;;12.23;;
73512;SDS011;61754;55.008;73.348;2022-07-22T05:35:50;43.10;;;11.23;;
73512;SDS011;61754;55.008;73.348;2022-07-22T05:38:17;46.20;;;11.75;;
73512;SDS011;61754;55.008;73.348;2022-07-22T05:40:47;49.67;;;11.52;;
73512;SDS011;61754;55.008;73.348;2022-07-22T05:43:19;61.47;;;11.20;;
73512;SDS011;61754;55.008;73.348;2022-07-22T05:45:50;55.33;;;12.23;;
73512;SDS011;61754;55.008;73.348;2022-07-22T05:50:48;20.23;;;6.40;;
73512;SDS011;61754;55.008;73.348;2022-07-22T05:53:14;53.42;;;9.68;;
73512;SDS011;61754;55.008;73.348;2022-07-22T05:55:41;60.72;;;12.25;;
73512;SDS011;61754;55.008;73.348;2022-07-22T05:58:07;88.28;;;16.67;;
73512;SDS011;61754;55.008;73.348;2022-07-22T06:00:42;52.00;;;10.23;;
73512;SDS011;61754;55.008;73.348;2022-07-22T06:03:09;15.43;;;5.88;;
73512;SDS011;61754;55.008;73.348;2022-07-22T06:05:35;8.25;;;4.22;;
73512;SDS011;61754;55.008;73.348;2022-07-22T06:08:02;13.98;;;5.68;;
73512;SDS011;61754;55.008;73.348;2022-07-22T06:10:44;32.08;;;7.47;;
73512;SDS011;61754;55.008;73.348;2022-07-22T06:13:10;39.40;;;9.55;;
73512;SDS011;61754;55.008;73.348;2022-07-22T06:15:38;19.42;;;6.20;;
73512;SDS011;61754;55.008;73.348;2022-07-22T06:18:10;10.38;;;4.22;;
73512;SDS011;61754;55.008;73.348;2022-07-22T06:20:40;12.43;;;5.40;;
73512;SDS011;61754;55.008;73.348;2022-07-22T06:23:07;20.20;;;5.22;;
73512;SDS011;61754;55.008;73.348;2022-07-22T06:25:34;9.18;;;5.03;;
73512;SDS011;61754;55.008;73.348;2022-07-22T06:28:00;9.20;;;4.15;;
73512;SDS011;61754;55.008;73.348;2022-07-22T06:30:36;14.75;;;6.13;;
73512;SDS011;61754;55.008;73.348;2022-07-22T06:33:03;4.85;;;4.32;;
73512;SDS011;61754;55.008;73.348;2022-07-22T06:35:40;8.27;;;4.28;;
73512;SDS011;61754;55.008;73.348;2022-07-22T06:38:06;19.48;;;5.03;;
73512;SDS011;61754;55.008;73.348;2022-07-22T06:40:56;8.98;;;3.85;;
73512;SDS011;61754;55.008;73.348;2022-07-22T06:43:40;12.65;;;4.45;;
73512;SDS011;61754;55.008;73.348;2022-07-22T06:46:25;6.55;;;3.83;;
73512;SDS011;61754;55.008;73.348;2022-07-22T06:49:02;7.78;;;4.40;;
73512;SDS011;61754;55.008;73.348;2022-07-22T06:51:32;8.68;;;4.25;;
73512;SDS011;61754;55.008;73.348;2022-07-22T06:53:58;7.05;;;4.03;;
73512;SDS011;61754;55.008;73.348;2022-07-22T06:56:34;8.55;;;4.18;;
73512;SDS011;61754;55.008;73.348;2022-07-22T06:59:00;9.77;;;4.05;;
73512;SDS011;61754;55.008;73.348;2022-07-22T07:01:26;5.10;;;3.58;;
73512;SDS011;61754;55.008;73.348;2022-07-22T07:03:54;4.30;;;3.90;;
73512;SDS011;61754;55.008;73.348;2022-07-22T07:06:20;11.40;;;3.72;;
73512;SDS011;61754;55.008;73.348;2022-07-22T07:09:05;7.63;;;4.28;;
73512;SDS011;61754;55.008;73.348;2022-07-22T07:11:34;4.90;;;4.03;;
73512;SDS011;61754;55.008;73.348;2022-07-22T07:14:05;4.70;;;4.20;;
73512;SDS011;61754;55.008;73.348;2022-07-22T07:16:31;4.38;;;4.00;;
73512;SDS011;61754;55.008;73.348;2022-07-22T07:18:57;8.23;;;4.10;;
73512;SDS011;61754;55.008;73.348;2022-07-22T07:21:23;8.23;;;4.53;;
73512;SDS011;61754;55.008;73.348;2022-07-22T07:23:49;5.85;;;4.30;;
73512;SDS011;61754;55.008;73.348;2022-07-22T07:26:15;10.63;;;5.28;;
73512;SDS011;61754;55.008;73.348;2022-07-22T07:28:51;11.05;;;4.70;;
73512;SDS011;61754;55.008;73.348;2022-07-22T07:31:28;22.90;;;6.63;;
73512;SDS011;61754;55.008;73.348;2022-07-22T07:33:56;43.85;;;8.98;;
73512;SDS011;61754;55.008;73.348;2022-07-22T07:36:22;11.05;;;5.68;;
73512;SDS011;61754;55.008;73.348;2022-07-22T07:38:49;19.23;;;5.30;;
73512;SDS011;61754;55.008;73.348;2022-07-22T07:41:16;15.27;;;5.28;;
73512;SDS011;61754;55.008;73.348;2022-07-22T07:43:43;6.80;;;3.35;;
73512;SDS011;61754;55.008;73.348;2022-07-22T07:46:11;10.20;;;4.13;;
73512;SDS011;61754;55.008;73.348;2022-07-22T07:48:37;6.68;;;3.40;;
73512;SDS011;61754;55.008;73.348;2022-07-22T07:51:04;7.10;;;3.50;;
73512;SDS011;61754;55.008;73.348;2022-07-22T07:53:31;7.60;;;3.53;;
73512;SDS011;61754;55.008;73.348;2022-07-22T07:55:57;6.10;;;3.92;;
73512;SDS011;61754;55.008;73.348;2022-07-22T07:58:23;12.02;;;3.92;;
73512;SDS011;61754;55.008;73.348;2022-07-22T08:00:50;8.13;;;4.10;;
73512;SDS011;61754;55.008;73.348;2022-07-22T08:03:16;5.07;;;3.55;;
73512;SDS011;61754;55.008;73.348;2022-07-22T08:05:42;7.68;;;3.97;;
73512;SDS011;61754;55.008;73.348;2022-07-22T08:08:18;6.38;;;3.72;;
73512;SDS011;61754;55.008;73.348;2022-07-22T08:10:44;7.32;;;3.83;;
73512;SDS011;61754;55.008;73.348;2022-07-22T08:13:31;14.45;;;3.65;;
73512;SDS011;61754;55.008;73.348;2022-07-22T08:16:20;6.28;;;4.10;;
73512;SDS011;61754;55.008;73.348;2022-07-22T08:18:46;18.23;;;5.78;;
73512;SDS011;61754;55.008;73.348;2022-07-22T08:21:12;25.60;;;6.68;;
73512;SDS011;61754;55.008;73.348;2022-07-22T08:23:51;35.42;;;8.77;;
73512;SDS011;61754;55.008;73.348;2022-07-22T08:26:18;33.05;;;7.63;;
73512;SDS011;61754;55.008;73.348;2022-07-22T08:28:55;25.10;;;6.32;;
73512;SDS011;61754;55.008;73.348;2022-07-22T08:31:31;32.22;;;6.68;;
73512;SDS011;61754;55.008;73.348;2022-07-22T08:34:04;21.50;;;5.80;;
73512;SDS011;61754;55.008;73.348;2022-07-22T08:36:31;27.05;;;5.63;;
73512;SDS011;61754;55.008;73.348;2022-07-22T08:38:57;34.88;;;8.13;;
73512;SDS011;61754;55.008;73.348;2022-07-22T08:41:23;20.23;;;5.80;;
73512;SDS011;61754;55.008;73.348;2022-07-22T08:43:50;27.20;;;5.85;;
73512;SDS011;61754;55.008;73.348;2022-07-22T08:46:16;18.85;;;5.18;;
73512;SDS011;61754;55.008;73.348;2022-07-22T08:49:05;14.27;;;4.53;;
73512;SDS011;61754;55.008;73.348;2022-07-22T08:51:43;18.50;;;4.60;;
73512;SDS011;61754;55.008;73.348;2022-07-22T08:54:19;11.68;;;4.07;;
73512;SDS011;61754;55.008;73.348;2022-07-22T08:56:46;8.27;;;4.30;;
73512;SDS011;61754;55.008;73.348;2022-07-22T08:59:12;7.07;;;4.50;;
73512;SDS011;61754;55.008;73.348;2022-07-22T09:01:43;6.85;;;4.15;;
73512;SDS011;61754;55.008;73.348;2022-07-22T09:04:25;9.80;;;4.72;;
73512;SDS011;61754;55.008;73.348;2022-07-22T09:06:51;5.53;;;4.38;;
73512;SDS011;61754;55.008;73.348;2022-07-22T09:09:17;13.93;;;5.07;;
73512;SDS011;61754;55.008;73.348;2022-07-22T09:12:24;11.82;;;5.25;;
73512;SDS011;61754;55.008;73.348;2022-07-22T09:15:03;6.10;;;4.63;;
73512;SDS011;61754;55.008;73.348;2022-07-22T09:17:53;6.45;;;4.43;;
73512;SDS011;61754;55.008;73.348;2022-07-22T09:20:42;7.82;;;4.25;;
73512;SDS011;61754;55.008;73.348;2022-07-22T09:23:39;55.95;;;10.98;;
73512;SDS011;61754;55.008;73.348;2022-07-22T09:26:06;23.90;;;6.35;;
73512;SDS011;61754;55.008;73.348;2022-07-22T09:28:54;19.52;;;4.88;;
73512;SDS011;61754;55.008;73.348;2022-07-22T09:31:33;11.02;;;4.00;;
73512;SDS011;61754;55.008;73.348;2022-07-22T09:34:12;6.30;;;4.05;;
73512;SDS011;61754;55.008;73.348;2022-07-22T09:36:55;16.33;;;5.82;;
73512;SDS011;61754;55.008;73.348;2022-07-22T09:39:28;18.17;;;5.93;;
73512;SDS011;61754;55.008;73.348;2022-07-22T09:42:06;9.50;;;4.88;;
73512;SDS011;61754;55.008;73.348;2022-07-22T09:44:34;14.52;;;4.38;;
73512;SDS011;61754;55.008;73.348;2022-07-22T09:47:17;13.25;;;5.05;;
73512;SDS011;61754;55.008;73.348;2022-07-22T09:50:16;17.07;;;4.77;;
73512;SDS011;61754;55.008;73.348;2022-07-22T09:53:11;7.70;;;4.37;;
73512;SDS011;61754;55.008;73.348;2022-07-22T09:55:42;7.43;;;4.43;;
73512;SDS011;61754;55.008;73.348;2022-07-22T09:58:08;9.23;;;4.75;;
73512;SDS011;61754;55.008;73.348;2022-07-22T10:00:35;5.90;;;4.43;;
73512;SDS011;61754;55.008;73.348;2022-07-22T10:03:03;6.93;;;4.03;;
73512;SDS011;61754;55.008;73.348;2022-07-22T10:05:39;6.65;;;4.70;;
73512;SDS011;61754;55.008;73.348;2022-07-22T10:08:07;10.82;;;4.40;;
73512;SDS011;61754;55.008;73.348;2022-07-22T10:10:35;6.25;;;4.10;;
73512;SDS011;61754;55.008;73.348;2022-07-22T10:13:02;11.65;;;4.45;;
73512;SDS011;61754;55.008;73.348;2022-07-22T10:15:29;6.57;;;4.25;;
73512;SDS011;61754;55.008;73.348;2022-07-22T10:17:56;14.85;;;4.10;;
73512;SDS011;61754;55.008;73.348;2022-07-22T10:20:23;10.77;;;4.70;;
73512;SDS011;61754;55.008;73.348;2022-07-22T10:25:23;7.78;;;4.43;;
73512;SDS011;61754;55.008;73.348;2022-07-22T10:27:57;20.60;;;5.88;;
73512;SDS011;61754;55.008;73.348;2022-07-22T10:30:33;16.65;;;5.60;;
73512;SDS011;61754;55.008;73.348;2022-07-22T10:35:28;10.48;;;4.70;;
73512;SDS011;61754;55.008;73.348;2022-07-22T10:38:01;17.20;;;4.97;;
73512;SDS011;61754;55.008;73.348;2022-07-22T10:40:28;10.15;;;5.05;;
73512;SDS011;61754;55.008;73.348;2022-07-22T10:45:28;24.45;;;6.85;;
73512;SDS011;61754;55.008;73.348;2022-07-22T10:47:56;18.88;;;6.25;;
73512;SDS011;61754;55.008;73.348;2022-07-22T10:53:13;28.77;;;6.93;;
73512;SDS011;61754;55.008;73.348;2022-07-22T10:56:03;29.02;;;7.28;;
73512;SDS011;61754;55.008;73.348;2022-07-22T10:58:38;37.28;;;7.88;;
73512;SDS011;61754;55.008;73.348;2022-07-22T11:01:09;37.88;;;8.25;;
73512;SDS011;61754;55.008;73.348;2022-07-22T11:03:36;28.02;;;7.28;;
73512;SDS011;61754;55.008;73.348;2022-07-22T11:06:35;32.28;;;7.22;;
73512;SDS011;61754;55.008;73.348;2022-07-22T11:08:59;31.25;;;8.30;;
73512;SDS011;61754;55.008;73.348;2022-07-22T11:11:32;42.28;;;8.80;;
73512;SDS011;61754;55.008;73.348;2022-07-22T11:13:59;15.40;;;5.00;;
73512;SDS011;61754;55.008;73.348;2022-07-22T11:16:26;9.32;;;4.68;;
73512;SDS011;61754;55.008;73.348;2022-07-22T11:18:53;16.95;;;4.53;;
73512;SDS011;61754;55.008;73.348;2022-07-22T11:21:26;10.65;;;4.28;;
73512;SDS011;61754;55.008;73.348;2022-07-22T11:23:53;14.88;;;4.97;;
73512;SDS011;61754;55.008;73.348;2022-07-22T11:28:51;4.32;;;3.83;;
73512;SDS011;61754;55.008;73.348;2022-07-22T11:31:27;6.60;;;3.85;;
73512;SDS011;61754;55.008;73.348;2022-07-22T11:34:03;8.02;;;3.80;;
73512;SDS011;61754;55.008;73.348;2022-07-22T11:36:41;23.15;;;4.72;;
73512;SDS011;61754;55.008;73.348;2022-07-22T11:39:07;17.27;;;4.90;;
73512;SDS011;61754;55.008;73.348;2022-07-22T11:41:43;29.05;;;4.55;;
73512;SDS011;61754;55.008;73.348;2022-07-22T11:44:17;5.25;;;3.28;;
73512;SDS011;61754;55.008;73.348;2022-07-22T11:46:43;4.95;;;3.80;;
73512;SDS011;61754;55.008;73.348;2022-07-22T11:49:12;6.82;;;4.00;;
73512;SDS011;61754;55.008;73.348;2022-07-22T11:51:39;5.88;;;3.97;;
73512;SDS011;61754;55.008;73.348;2022-07-22T11:54:05;4.95;;;4.45;;
73512;SDS011;61754;55.008;73.348;2022-07-22T11:56:42;13.23;;;4.97;;
73512;SDS011;61754;55.008;73.348;2022-07-22T11:59:11;7.65;;;4.88;;
73512;SDS011;61754;55.008;73.348;2022-07-22T12:01:38;4.78;;;3.92;;
73512;SDS011;61754;55.008;73.348;2022-07-22T12:04:08;5.63;;;4.63;;
73512;SDS011;61754;55.008;73.348;2022-07-22T12:06:35;13.48;;;3.90;;
73512;SDS011;61754;55.008;73.348;2022-07-22T12:09:14;8.02;;;4.18;;
73512;SDS011;61754;55.008;73.348;2022-07-22T12:11:42;7.55;;;4.60;;
73512;SDS011;61754;55.008;73.348;2022-07-22T12:14:13;4.78;;;4.35;;
73512;SDS011;61754;55.008;73.348;2022-07-22T12:16:39;6.70;;;3.90;;
73512;SDS011;61754;55.008;73.348;2022-07-22T12:19:07;5.40;;;4.05;;
73512;SDS011;61754;55.008;73.348;2022-07-22T12:21:54;6.13;;;4.40;;
73512;SDS011;61754;55.008;73.348;2022-07-22T12:24:32;8.45;;;4.57;;
73512;SDS011;61754;55.008;73.348;2022-07-22T12:26:59;8.10;;;4.57;;
73512;SDS011;61754;55.008;73.348;2022-07-22T12:29:30;7.50;;;4.22;;
73512;SDS011;61754;55.008;73.348;2022-07-22T12:32:00;8.15;;;4.88;;
73512;SDS011;61754;55.008;73.348;2022-07-22T12:36:59;7.15;;;4.38;;
73512;SDS011;61754;55.008;73.348;2022-07-22T12:39:27;10.88;;;4.63;;
73512;SDS011;61754;55.008;73.348;2022-07-22T12:41:54;5.97;;;4.72;;
73512;SDS011;61754;55.008;73.348;2022-07-22T12:44:21;8.18;;;4.88;;
73512;SDS011;61754;55.008;73.348;2022-07-22T12:46:48;8.30;;;4.65;;
73512;SDS011;61754;55.008;73.348;2022-07-22T12:49:16;10.15;;;5.45;;
73512;SDS011;61754;55.008;73.348;2022-07-22T12:52:03;10.50;;;5.00;;
73512;SDS011;61754;55.008;73.348;2022-07-22T12:54:34;5.47;;;4.10;;
73512;SDS011;61754;55.008;73.348;2022-07-22T12:57:00;7.35;;;4.55;;
73512;SDS011;61754;55.008;73.348;2022-07-22T12:59:26;10.43;;;4.88;;
73512;SDS011;61754;55.008;73.348;2022-07-22T13:01:52;8.45;;;4.05;;
73512;SDS011;61754;55.008;73.348;2022-07-22T13:04:28;7.25;;;3.97;;
73512;SDS011;61754;55.008;73.348;2022-07-22T13:06:55;9.70;;;4.70;;
73512;SDS011;61754;55.008;73.348;2022-07-22T13:09:21;8.20;;;4.90;;
73512;SDS011;61754;55.008;73.348;2022-07-22T13:11:47;9.38;;;5.05;;
73512;SDS011;61754;55.008;73.348;2022-07-22T13:14:18;4.57;;;4.13;;
73512;SDS011;61754;55.008;73.348;2022-07-22T13:16:44;8.48;;;4.03;;
73512;SDS011;61754;55.008;73.348;2022-07-22T13:19:10;7.80;;;4.15;;
73512;SDS011;61754;55.008;73.348;2022-07-22T13:21:46;11.38;;;4.35;;
73512;SDS011;61754;55.008;73.348;2022-07-22T13:24:13;6.22;;;3.70;;
73512;SDS011;61754;55.008;73.348;2022-07-22T13:26:40;11.35;;;4.05;;
73512;SDS011;61754;55.008;73.348;2022-07-22T13:29:07;10.70;;;4.30;;
73512;SDS011;61754;55.008;73.348;2022-07-22T13:31:33;11.43;;;4.43;;
73512;SDS011;61754;55.008;73.348;2022-07-22T13:33:59;5.65;;;4.22;;
73512;SDS011;61754;55.008;73.348;2022-07-22T13:36:25;7.47;;;3.65;;
73512;SDS011;61754;55.008;73.348;2022-07-22T13:38:54;12.20;;;4.57;;
73512;SDS011;61754;55.008;73.348;2022-07-22T13:41:26;5.97;;;3.50;;
73512;SDS011;61754;55.008;73.348;2022-07-22T13:43:52;6.88;;;4.10;;
73512;SDS011;61754;55.008;73.348;2022-07-22T13:46:28;9.90;;;5.18;;
73512;SDS011;61754;55.008;73.348;2022-07-22T13:48:54;15.73;;;4.93;;
73512;SDS011;61754;55.008;73.348;2022-07-22T13:51:30;6.97;;;4.55;;
73512;SDS011;61754;55.008;73.348;2022-07-22T13:53:56;12.88;;;4.97;;
73512;SDS011;61754;55.008;73.348;2022-07-22T13:56:22;5.63;;;4.78;;
73512;SDS011;61754;55.008;73.348;2022-07-22T13:58:54;7.18;;;4.22;;
73512;SDS011;61754;55.008;73.348;2022-07-22T14:01:30;7.03;;;3.40;;
73512;SDS011;61754;55.008;73.348;2022-07-22T14:04:01;6.72;;;3.75;;
73512;SDS011;61754;55.008;73.348;2022-07-22T14:06:34;5.97;;;3.67;;
73512;SDS011;61754;55.008;73.348;2022-07-22T14:09:05;9.98;;;3.97;;
73512;SDS011;61754;55.008;73.348;2022-07-22T14:11:36;16.38;;;5.03;;
73512;SDS011;61754;55.008;73.348;2022-07-22T14:14:02;7.40;;;4.65;;
73512;SDS011;61754;55.008;73.348;2022-07-22T14:16:28;9.93;;;4.32;;
73512;SDS011;61754;55.008;73.348;2022-07-22T14:19:11;5.65;;;3.95;;
73512;SDS011;61754;55.008;73.348;2022-07-22T14:21:37;8.43;;;4.07;;
73512;SDS011;61754;55.008;73.348;2022-07-22T14:24:06;8.20;;;3.47;;
73512;SDS011;61754;55.008;73.348;2022-07-22T14:26:35;4.10;;;3.13;;
73512;SDS011;61754;55.008;73.348;2022-07-22T14:29:02;6.38;;;3.80;;
73512;SDS011;61754;55.008;73.348;2022-07-22T14:31:32;9.00;;;3.83;;
73512;SDS011;61754;55.008;73.348;2022-07-22T14:34:02;8.68;;;3.65;;
73512;SDS011;61754;55.008;73.348;2022-07-22T14:36:28;12.30;;;4.10;;
73512;SDS011;61754;55.008;73.348;2022-07-22T14:38:54;10.00;;;4.03;;
73512;SDS011;61754;55.008;73.348;2022-07-22T14:41:20;8.35;;;3.45;;
73512;SDS011;61754;55.008;73.348;2022-07-22T14:43:47;6.72;;;3.70;;
73512;SDS011;61754;55.008;73.348;2022-07-22T14:46:13;6.68;;;2.88;;
73512;SDS011;61754;55.008;73.348;2022-07-22T14:48:39;8.13;;;3.40;;
73512;SDS011;61754;55.008;73.348;2022-07-22T14:51:06;9.98;;;3.45;;
73512;SDS011;61754;55.008;73.348;2022-07-22T14:53:32;7.28;;;3.08;;
73512;SDS011;61754;55.008;73.348;2022-07-22T14:55:59;4.70;;;2.58;;
73512;SDS011;61754;55.008;73.348;2022-07-22T14:58:25;6.57;;;3.17;;
73512;SDS011;61754;55.008;73.348;2022-07-22T15:00:57;3.03;;;2.70;;